Terminal Aerodrome Forecast
Issued by NWS Shreveport, LA

Home | Current Version | Previous Version | Text Only | Print | Product List | Glossary On
Versions: 1 2 3 4 5 6 7 8 9 10 11 12 13
000
FTUS44 KSHV 201841 AAA
TAFMLU
TAF AMD
KMLU 201841Z 2019/2118 17007KT P6SM VCSH BKN018 OVC045
     FM210000 18006KT P6SM OVC015
     FM210300 16006KT 5SM BR OVC007
     FM211400 16006KT 5SM BR OVC004=

USA.gov is the U.S. government's official web portal to all federal, state and local government web resources and services.